createdAt,value
2017-11-16T00:00:26.524Z,10.69
2017-11-16T00:02:55.728Z,10.70
2017-11-16T00:05:24.951Z,10.72
2017-11-16T00:07:54.127Z,10.74
2017-11-16T00:10:23.354Z,10.77
2017-11-16T00:12:52.556Z,10.74
2017-11-16T00:15:21.745Z,10.77
2017-11-16T00:17:52.443Z,10.80
2017-11-16T00:20:22.098Z,10.82
2017-11-16T00:22:52.042Z,10.82
2017-11-16T00:25:21.243Z,10.84
2017-11-16T00:27:50.469Z,10.87
2017-11-16T00:30:19.685Z,10.85
2017-11-16T00:32:50.405Z,10.86
2017-11-16T00:35:19.584Z,10.88
2017-11-16T00:37:48.803Z,10.88
2017-11-16T00:40:18.006Z,10.79
2017-11-16T00:42:47.233Z,10.81
2017-11-16T00:45:16.407Z,10.82
2017-11-16T00:47:45.669Z,10.82
2017-11-16T00:50:15.615Z,10.80
2017-11-16T00:52:44.912Z,10.77
2017-11-16T00:55:14.124Z,10.77
2017-11-16T00:57:43.314Z,10.77
2017-11-16T01:00:14.078Z,10.75
2017-11-16T01:02:44.034Z,10.72
2017-11-16T01:05:13.256Z,10.69
2017-11-16T01:07:42.785Z,10.66
2017-11-16T01:10:12.750Z,10.68
2017-11-16T01:12:42.069Z,10.69
2017-11-16T01:15:11.291Z,10.68
2017-11-16T01:17:40.500Z,10.69
2017-11-16T01:20:10.454Z,10.67
2017-11-16T01:22:39.674Z,10.62
2017-11-16T01:25:08.934Z,10.57
2017-11-16T01:27:38.147Z,10.55
2017-11-16T01:30:07.335Z,10.54
2017-11-16T01:32:36.536Z,10.51
2017-11-16T01:35:05.768Z,10.49
2017-11-16T01:37:34.957Z,10.44
2017-11-16T01:40:04.180Z,10.35
2017-11-16T01:42:34.151Z,10.33
2017-11-16T01:45:03.348Z,10.30
2017-11-16T01:47:32.566Z,10.28
2017-11-16T01:50:01.776Z,10.23
2017-11-16T01:52:30.987Z,10.19
2017-11-16T01:55:00.215Z,10.16
2017-11-16T01:57:29.424Z,10.16
2017-11-16T01:59:58.606Z,10.18
2017-11-16T02:02:40.265Z,10.11
2017-11-16T02:05:09.438Z,9.96
2017-11-16T02:07:38.944Z,9.87
2017-11-16T02:10:08.112Z,9.77
2017-11-16T02:12:37.284Z,9.76
2017-11-16T02:15:07.335Z,9.79
2017-11-16T02:17:36.522Z,9.86
2017-11-16T02:20:05.831Z,9.88
2017-11-16T02:22:35.930Z,9.82
2017-11-16T02:25:05.139Z,9.86
2017-11-16T02:27:34.355Z,9.91
2017-11-16T02:30:03.579Z,9.95
2017-11-16T02:32:32.735Z,9.99
2017-11-16T02:35:01.934Z,9.97
2017-11-16T02:37:31.226Z,9.96
2017-11-16T02:40:01.256Z,9.96
2017-11-16T02:42:31.288Z,9.96
2017-11-16T02:45:00.476Z,9.94
2017-11-16T02:47:30.092Z,9.94
2017-11-16T02:49:59.265Z,9.94
2017-11-16T02:52:28.437Z,9.94
2017-11-16T02:54:57.683Z,9.95
2017-11-16T02:57:26.845Z,9.92
2017-11-16T02:59:56.283Z,9.95
2017-11-16T03:02:27.098Z,9.98
2017-11-16T03:04:56.289Z,10.03
2017-11-16T03:07:25.465Z,10.06
2017-11-16T03:09:55.435Z,10.06
2017-11-16T03:12:24.617Z,10.06
2017-11-16T03:14:53.801Z,10.08
2017-11-16T03:17:23.013Z,10.09
2017-11-16T03:19:52.223Z,10.06
2017-11-16T03:22:21.410Z,10.08
2017-11-16T03:24:50.589Z,10.09
2017-11-16T03:27:19.793Z,10.07
2017-11-16T03:29:49.027Z,10.04
2017-11-16T03:32:18.403Z,10.08
2017-11-16T03:34:47.878Z,10.11
2017-11-16T03:37:17.070Z,10.09
2017-11-16T03:39:46.260Z,10.07
2017-11-16T03:42:16.208Z,10.10
2017-11-16T03:44:45.407Z,10.10
2017-11-16T03:47:14.583Z,10.07
2017-11-16T03:49:43.830Z,10.11
2017-11-16T03:52:13.000Z,10.14
2017-11-16T03:54:42.210Z,10.15
2017-11-16T03:57:11.442Z,10.14
2017-11-16T03:59:41.422Z,10.13
2017-11-16T04:02:10.637Z,10.06
2017-11-16T04:04:39.863Z,10.01
2017-11-16T04:07:09.162Z,9.98
2017-11-16T04:09:39.119Z,9.99
2017-11-16T04:12:08.434Z,10.02
2017-11-16T04:14:37.627Z,9.96
2017-11-16T04:17:06.846Z,9.87
2017-11-16T04:19:37.532Z,9.90
2017-11-16T04:22:06.711Z,9.88
2017-11-16T04:24:35.913Z,9.86
2017-11-16T04:27:05.827Z,9.87
2017-11-16T04:29:35.075Z,9.87
2017-11-16T04:32:05.018Z,9.79
2017-11-16T04:34:35.104Z,9.76
2017-11-16T04:37:04.390Z,9.72
2017-11-16T04:39:33.637Z,9.73
2017-11-16T04:42:03.584Z,9.76
2017-11-16T04:44:32.888Z,9.82
2017-11-16T04:47:02.396Z,9.80
2017-11-16T04:49:31.646Z,9.78
2017-11-16T04:52:01.737Z,9.76
2017-11-16T04:54:32.430Z,9.73
2017-11-16T04:57:01.641Z,9.71
2017-11-16T04:59:30.821Z,9.67
2017-11-16T05:01:59.993Z,9.68
2017-11-16T05:04:29.945Z,9.70
2017-11-16T05:06:59.120Z,9.71
2017-11-16T05:09:28.352Z,9.66
2017-11-16T05:11:57.531Z,9.65
2017-11-16T05:14:26.793Z,9.65
2017-11-16T05:16:56.751Z,9.65
2017-11-16T05:19:26.091Z,9.66
2017-11-16T05:21:56.041Z,9.67
2017-11-16T05:24:25.242Z,9.64
2017-11-16T05:26:54.420Z,9.61
2017-11-16T05:29:24.369Z,9.59
2017-11-16T05:31:53.570Z,9.54
2017-11-16T05:34:22.863Z,9.57
2017-11-16T05:36:52.056Z,9.57
2017-11-16T05:39:21.233Z,9.56
2017-11-16T05:41:51.197Z,9.58
2017-11-16T05:44:20.443Z,9.57
2017-11-16T05:46:50.463Z,9.59
2017-11-16T05:49:20.394Z,9.56
2017-11-16T05:51:49.609Z,9.53
2017-11-16T05:54:18.796Z,9.57
2017-11-16T05:56:48.097Z,9.58
2017-11-16T05:59:17.274Z,9.59
2017-11-16T06:01:46.687Z,9.57
2017-11-16T06:04:15.929Z,9.56
2017-11-16T06:06:46.625Z,9.57
2017-11-16T06:09:15.889Z,9.55
2017-11-16T06:11:45.864Z,9.54
2017-11-16T06:14:15.288Z,9.47
2017-11-16T06:16:44.454Z,9.44
2017-11-16T06:19:13.676Z,9.44
2017-11-16T06:21:42.843Z,9.43
2017-11-16T06:24:12.032Z,9.40
2017-11-16T06:26:41.199Z,9.39
2017-11-16T06:29:10.448Z,9.37
2017-11-16T06:31:39.611Z,9.35
2017-11-16T06:34:08.797Z,9.33
2017-11-16T06:36:38.755Z,9.31
2017-11-16T06:39:07.945Z,9.32
2017-11-16T06:41:37.137Z,9.38
2017-11-16T06:44:06.343Z,9.39
2017-11-16T06:46:35.565Z,9.38
2017-11-16T06:49:05.526Z,9.37
2017-11-16T06:51:34.767Z,9.33
2017-11-16T06:54:03.938Z,9.36
2017-11-16T06:56:33.092Z,9.37
2017-11-16T06:59:03.068Z,9.35
2017-11-16T07:01:32.238Z,9.37
2017-11-16T07:04:01.418Z,9.36
2017-11-16T07:06:30.634Z,9.37
2017-11-16T07:08:59.860Z,9.34
2017-11-16T07:11:29.046Z,9.34
2017-11-16T07:13:59.037Z,9.33
2017-11-16T07:16:28.216Z,9.31
2017-11-16T07:18:57.437Z,9.35
2017-11-16T07:21:26.595Z,9.41
2017-11-16T07:23:56.577Z,9.40
2017-11-16T07:26:25.787Z,9.37
2017-11-16T07:28:55.073Z,9.36
2017-11-16T07:31:24.357Z,9.37
2017-11-16T07:33:53.551Z,9.39
2017-11-16T07:36:22.758Z,9.36
2017-11-16T07:38:52.172Z,9.32
2017-11-16T07:41:21.332Z,9.33
2017-11-16T07:43:50.555Z,9.31
2017-11-16T07:46:19.774Z,9.31
2017-11-16T07:48:48.954Z,9.31
2017-11-16T07:51:18.187Z,9.27
2017-11-16T07:53:48.186Z,9.19
2017-11-16T07:56:17.364Z,9.21
2017-11-16T07:58:47.347Z,9.23
2017-11-16T08:01:16.514Z,9.22
2017-11-16T08:03:46.482Z,9.17
2017-11-16T08:06:15.655Z,9.17
2017-11-16T08:08:44.834Z,9.19
2017-11-16T08:11:14.030Z,9.23
2017-11-16T08:13:44.099Z,9.28
2017-11-16T08:16:13.369Z,9.35
2017-11-16T08:18:43.472Z,9.39
2017-11-16T08:21:12.708Z,9.42
2017-11-16T08:23:41.979Z,9.45
2017-11-16T08:26:11.174Z,9.49
2017-11-16T08:28:40.388Z,9.49
2017-11-16T08:31:09.572Z,9.50
2017-11-16T08:33:38.768Z,9.53
2017-11-16T08:36:08.020Z,9.52
2017-11-16T08:38:37.196Z,9.52
2017-11-16T08:41:06.457Z,9.53
2017-11-16T08:43:35.647Z,9.51
2017-11-16T08:46:04.853Z,9.53
2017-11-16T08:48:34.086Z,9.52
2017-11-16T08:51:03.382Z,9.51
2017-11-16T08:53:32.534Z,9.51
2017-11-16T08:56:02.503Z,9.50
2017-11-16T08:58:31.687Z,9.53
2017-11-16T09:01:00.876Z,9.56
2017-11-16T09:03:30.033Z,9.52
2017-11-16T09:05:59.262Z,9.58
2017-11-16T09:08:28.510Z,9.64
2017-11-16T09:10:57.677Z,9.67
2017-11-16T09:13:26.921Z,9.67
2017-11-16T09:15:56.865Z,9.69
2017-11-16T09:18:26.047Z,9.67
2017-11-16T09:20:55.221Z,9.70
2017-11-16T09:23:25.174Z,9.73
2017-11-16T09:25:54.379Z,9.69
2017-11-16T09:28:23.586Z,9.70
2017-11-16T09:30:52.821Z,9.75
2017-11-16T09:33:22.093Z,9.65
2017-11-16T09:35:51.291Z,9.63
2017-11-16T09:38:20.525Z,9.60
2017-11-16T09:40:50.479Z,9.65
2017-11-16T09:43:19.692Z,9.69
2017-11-16T09:45:49.006Z,9.67
2017-11-16T09:48:18.339Z,9.67
2017-11-16T09:50:48.362Z,9.74
2017-11-16T09:53:17.762Z,9.84
2017-11-16T09:55:47.743Z,9.90
2017-11-16T09:58:16.956Z,9.96
2017-11-16T10:00:46.947Z,10.00
2017-11-16T10:03:16.114Z,10.03
2017-11-16T10:05:45.323Z,9.92
2017-11-16T10:08:14.503Z,9.82
2017-11-16T10:10:43.790Z,9.84
2017-11-16T10:13:12.981Z,9.84
2017-11-16T10:15:42.953Z,9.88
2017-11-16T10:18:12.143Z,9.89
2017-11-16T10:20:41.386Z,9.88
2017-11-16T10:23:11.315Z,9.89
2017-11-16T10:25:40.547Z,9.89
2017-11-16T10:28:09.800Z,9.88
2017-11-16T10:30:39.984Z,9.86
2017-11-16T10:33:09.171Z,9.91
2017-11-16T10:35:38.434Z,9.96
2017-11-16T10:38:07.646Z,9.96
2017-11-16T10:40:36.842Z,9.99
2017-11-16T10:43:06.026Z,10.04
2017-11-16T10:45:35.211Z,10.09
2017-11-16T10:48:04.466Z,10.09
2017-11-16T10:50:33.709Z,10.17
2017-11-16T10:53:03.682Z,10.20
2017-11-16T10:55:32.953Z,10.23
2017-11-16T10:58:02.169Z,10.19
2017-11-16T11:00:31.562Z,10.27
2017-11-16T11:03:00.802Z,10.29
2017-11-16T11:05:30.789Z,10.37
2017-11-16T11:08:00.009Z,10.48
2017-11-16T11:10:29.980Z,10.59
2017-11-16T11:12:59.240Z,10.70
2017-11-16T11:15:29.217Z,10.78
2017-11-16T11:17:58.455Z,10.85
2017-11-16T11:20:27.660Z,10.88
2017-11-16T11:22:56.924Z,10.89
2017-11-16T11:25:26.114Z,10.90
2017-11-16T11:27:55.342Z,10.84
2017-11-16T11:30:25.388Z,10.88
2017-11-16T11:32:54.618Z,10.87
2017-11-16T11:35:23.849Z,10.93
2017-11-16T11:37:53.856Z,10.98
2017-11-16T11:40:23.998Z,11.01
2017-11-16T11:42:53.221Z,11.03
2017-11-16T11:45:22.699Z,11.08
2017-11-16T11:47:51.924Z,11.10
2017-11-16T11:50:21.177Z,11.02
2017-11-16T11:52:51.169Z,11.00
2017-11-16T11:55:21.177Z,10.93
2017-11-16T11:57:51.168Z,10.87
2017-11-16T12:00:20.648Z,10.85
2017-11-16T12:02:49.927Z,10.88
2017-11-16T12:05:20.115Z,10.92
2017-11-16T12:07:49.395Z,10.98
2017-11-16T12:10:18.617Z,11.01
2017-11-16T12:12:47.838Z,11.07
2017-11-16T12:15:17.915Z,11.11
2017-11-16T12:17:47.129Z,11.14
2017-11-16T12:20:16.321Z,11.18
2017-11-16T12:22:45.507Z,11.17
2017-11-16T12:25:14.735Z,11.18
2017-11-16T12:27:43.938Z,11.22
2017-11-16T12:30:13.115Z,11.19
2017-11-16T12:32:42.377Z,11.22
2017-11-16T12:35:11.585Z,11.16
2017-11-16T12:37:40.782Z,11.17
2017-11-16T12:40:10.182Z,11.22
2017-11-16T12:42:39.329Z,11.24
2017-11-16T12:45:09.425Z,11.17
2017-11-16T12:47:39.579Z,11.21
2017-11-16T12:50:09.568Z,11.26
2017-11-16T12:52:39.927Z,11.29
2017-11-16T12:55:09.887Z,11.35
2017-11-16T12:57:40.624Z,11.45
2017-11-16T13:00:09.826Z,11.50
2017-11-16T13:02:39.123Z,11.50
2017-11-16T13:05:08.413Z,11.44
2017-11-16T13:07:38.783Z,11.45
2017-11-16T13:10:08.793Z,11.43
2017-11-16T13:12:38.820Z,11.40
2017-11-16T13:15:08.819Z,11.43
2017-11-16T13:17:38.278Z,11.44
2017-11-16T13:20:07.465Z,11.40
2017-11-16T13:22:36.973Z,11.37
2017-11-16T13:25:06.988Z,11.38
2017-11-16T13:27:36.214Z,11.39
2017-11-16T13:30:05.526Z,11.40
2017-11-16T13:32:34.749Z,11.38
2017-11-16T13:35:04.778Z,11.37
2017-11-16T13:37:34.748Z,11.38
2017-11-16T13:40:04.056Z,11.34
2017-11-16T13:42:33.299Z,11.31
2017-11-16T13:45:02.546Z,11.34
2017-11-16T13:47:31.819Z,11.34
2017-11-16T13:50:01.019Z,11.26
2017-11-16T13:52:30.221Z,11.25
2017-11-16T13:54:59.425Z,11.19
2017-11-16T13:57:28.707Z,11.18
2017-11-16T13:59:57.935Z,11.18
2017-11-16T14:02:27.185Z,11.17
2017-11-16T14:04:57.687Z,11.21
2017-11-16T14:07:27.745Z,11.21
2017-11-16T14:09:56.930Z,11.21
2017-11-16T14:12:26.206Z,11.24
2017-11-16T14:14:56.177Z,11.31
2017-11-16T14:17:25.431Z,11.33
2017-11-16T14:19:54.685Z,11.32
2017-11-16T14:22:23.942Z,11.29
2017-11-16T14:24:53.354Z,11.31
2017-11-16T14:27:22.522Z,11.30
2017-11-16T14:29:52.559Z,11.29
2017-11-16T14:32:21.810Z,11.31
2017-11-16T14:34:51.001Z,11.30
2017-11-16T14:37:20.236Z,11.24
2017-11-16T14:39:49.594Z,11.21
2017-11-16T14:42:18.840Z,11.17
2017-11-16T14:44:48.838Z,11.10
2017-11-16T14:47:18.884Z,11.11
2017-11-16T14:49:48.826Z,11.08
2017-11-16T14:52:18.203Z,11.06
2017-11-16T14:54:47.461Z,11.04
2017-11-16T14:57:18.304Z,11.00
2017-11-16T14:59:48.273Z,10.98
2017-11-16T15:02:17.826Z,10.99
2017-11-16T15:04:47.797Z,10.89
2017-11-16T15:07:17.075Z,10.86
2017-11-16T15:09:46.412Z,10.80
2017-11-16T15:12:15.606Z,10.80
2017-11-16T15:14:44.880Z,10.80
2017-11-16T15:17:14.099Z,10.76
2017-11-16T15:19:43.335Z,10.73
2017-11-16T15:22:13.315Z,10.72
2017-11-16T15:24:42.575Z,10.68
2017-11-16T15:27:11.803Z,10.65
2017-11-16T15:29:41.093Z,10.62
2017-11-16T15:32:10.516Z,10.56
2017-11-16T15:34:40.723Z,10.57
2017-11-16T15:37:09.963Z,10.60
2017-11-16T15:39:39.972Z,10.61
2017-11-16T15:42:09.208Z,10.61
2017-11-16T15:44:38.567Z,10.60
2017-11-16T15:47:09.176Z,10.59
2017-11-16T15:49:38.443Z,10.57
2017-11-16T15:52:07.660Z,10.58
2017-11-16T15:54:36.921Z,10.52
2017-11-16T15:57:06.188Z,10.49
2017-11-16T15:59:36.196Z,10.52
2017-11-16T16:02:05.431Z,10.53
2017-11-16T16:04:34.678Z,10.53
2017-11-16T16:07:04.026Z,10.48
2017-11-16T16:09:34.022Z,10.49
2017-11-16T16:12:04.031Z,10.46
2017-11-16T16:14:34.114Z,10.42
2017-11-16T16:17:03.402Z,10.44
2017-11-16T16:19:32.691Z,10.41
2017-11-16T16:22:01.965Z,10.43
2017-11-16T16:24:32.110Z,10.45
2017-11-16T16:27:02.241Z,10.46
2017-11-16T16:29:31.471Z,10.46
2017-11-16T16:32:00.752Z,10.47
2017-11-16T16:34:29.937Z,10.43
2017-11-16T16:36:59.214Z,10.44
2017-11-16T16:39:28.451Z,10.42
2017-11-16T16:41:57.712Z,10.42
2017-11-16T16:44:27.719Z,10.44
2017-11-16T16:46:56.969Z,10.41
2017-11-16T16:49:26.202Z,10.39
2017-11-16T16:51:56.232Z,10.37
2017-11-16T16:54:26.573Z,10.36
2017-11-16T16:56:55.813Z,10.37
2017-11-16T16:59:25.082Z,10.40
2017-11-16T17:01:55.113Z,10.42
2017-11-16T17:04:25.934Z,10.45
2017-11-16T17:06:55.227Z,10.45
2017-11-16T17:09:24.525Z,10.45
2017-11-16T17:11:54.747Z,10.40
2017-11-16T17:14:24.013Z,10.36
2017-11-16T17:16:54.213Z,10.35
2017-11-16T17:19:23.501Z,10.37
2017-11-16T17:21:52.801Z,10.39
2017-11-16T17:24:22.142Z,10.39
2017-11-16T17:26:52.872Z,10.34
2017-11-16T17:29:22.993Z,10.37
2017-11-16T17:31:53.020Z,10.34
2017-11-16T17:34:23.132Z,10.35
2017-11-16T17:36:52.372Z,10.31
2017-11-16T17:39:21.607Z,10.36
2017-11-16T17:41:51.600Z,10.41
2017-11-16T17:44:20.914Z,10.45
2017-11-16T17:46:50.874Z,10.48
2017-11-16T17:49:20.949Z,10.48
2017-11-16T17:51:50.196Z,10.48
2017-11-16T17:54:19.461Z,10.51
2017-11-16T17:56:50.135Z,10.48
2017-11-16T17:59:20.365Z,10.44
2017-11-16T18:01:50.892Z,10.38
2017-11-16T18:04:20.981Z,10.39
2017-11-16T18:06:50.976Z,10.37
2017-11-16T18:09:21.042Z,10.37
2017-11-16T18:11:50.293Z,10.37
2017-11-16T18:14:21.233Z,10.37
2017-11-16T18:16:51.654Z,10.35
2017-11-16T18:19:22.389Z,10.36
2017-11-16T18:21:52.562Z,10.39
2017-11-16T18:24:26.039Z,10.33
2017-11-16T18:26:55.300Z,10.35
2017-11-16T18:29:26.231Z,10.32
2017-11-16T18:31:59.157Z,10.37
2017-11-16T18:34:29.428Z,10.39
2017-11-16T18:36:58.810Z,10.37
2017-11-16T18:39:28.803Z,10.34
2017-11-16T18:41:59.159Z,10.37
2017-11-16T18:44:31.812Z,10.44
2017-11-16T18:47:01.969Z,10.49
2017-11-16T18:49:31.327Z,10.39
2017-11-16T18:52:00.680Z,10.37
2017-11-16T18:54:32.542Z,10.34
2017-11-16T18:57:03.214Z,10.38
2017-11-16T18:59:34.109Z,10.43
2017-11-16T19:02:03.456Z,10.43
2017-11-16T19:04:32.880Z,10.43
2017-11-16T19:07:02.104Z,10.43
2017-11-16T19:09:32.203Z,10.41
2017-11-16T19:12:01.684Z,10.41
2017-11-16T19:14:30.928Z,10.39
2017-11-16T19:17:00.984Z,10.39
2017-11-16T19:19:31.907Z,10.40
2017-11-16T19:22:01.193Z,10.38
2017-11-16T19:24:33.402Z,10.41
2017-11-16T19:27:06.329Z,10.41
2017-11-16T19:29:36.270Z,10.41
2017-11-16T19:32:09.412Z,10.35
2017-11-16T19:34:42.025Z,10.34
2017-11-16T19:37:12.954Z,10.34
2017-11-16T19:39:42.293Z,10.35
2017-11-16T19:42:11.667Z,10.31
2017-11-16T19:44:43.849Z,10.37
2017-11-16T19:47:13.228Z,10.38
2017-11-16T19:49:43.306Z,10.30
2017-11-16T19:52:12.972Z,10.29
2017-11-16T19:54:45.540Z,10.29
2017-11-16T19:57:15.561Z,10.34
2017-11-16T19:59:44.810Z,10.41
2017-11-16T20:02:14.773Z,10.33
2017-11-16T20:04:44.991Z,10.33
2017-11-16T20:07:15.938Z,10.34
2017-11-16T20:09:45.197Z,10.34
2017-11-16T20:12:15.250Z,10.34
2017-11-16T20:14:45.569Z,10.32
2017-11-16T20:17:19.347Z,10.36
2017-11-16T20:19:48.636Z,10.31
2017-11-16T20:22:19.002Z,10.28
2017-11-16T20:24:49.136Z,10.27
2017-11-16T20:27:18.505Z,10.24
2017-11-16T20:29:49.445Z,10.23
2017-11-16T20:32:20.320Z,10.28
2017-11-16T20:34:49.674Z,10.25
2017-11-16T20:37:25.964Z,10.25
2017-11-16T20:40:01.596Z,10.20
2017-11-16T20:42:37.119Z,10.20
2017-11-16T20:58:35.470Z,10.03
2017-11-16T21:01:05.241Z,10.03
2017-11-16T21:03:35.777Z,10.04
2017-11-16T21:06:07.343Z,10.06
2017-11-16T21:08:36.854Z,10.09
2017-11-16T21:11:06.052Z,10.12
2017-11-16T21:13:36.869Z,10.18
2017-11-16T21:16:06.172Z,10.21
2017-11-16T21:18:35.706Z,10.29
2017-11-16T21:21:06.140Z,10.20
2017-11-16T21:23:36.583Z,10.25
2017-11-16T21:26:05.954Z,10.28
2017-11-16T21:28:35.192Z,10.31
2017-11-16T21:31:04.522Z,10.29
2017-11-16T21:33:33.862Z,10.31
2017-11-16T21:36:03.216Z,10.32
2017-11-16T21:38:32.634Z,10.34
2017-11-16T21:41:04.328Z,10.32
2017-11-16T21:43:36.122Z,10.31
2017-11-16T21:46:05.390Z,10.35
2017-11-16T21:48:35.486Z,10.34
2017-11-16T21:51:05.464Z,10.35
2017-11-16T21:53:38.198Z,10.35
2017-11-16T21:56:08.297Z,10.40
2017-11-16T21:58:38.995Z,10.37
2017-11-16T22:01:09.383Z,10.35
2017-11-16T22:03:40.224Z,10.36
2017-11-16T22:06:11.532Z,10.31
2017-11-16T22:08:43.784Z,10.30
2017-11-16T22:11:13.085Z,10.26
2017-11-16T22:13:43.865Z,10.26
2017-11-16T22:16:14.571Z,10.28
2017-11-16T22:18:43.798Z,10.29
2017-11-16T22:21:14.721Z,10.31
2017-11-16T22:23:43.978Z,10.34
2017-11-16T22:26:13.995Z,10.32
2017-11-16T22:28:43.173Z,10.36
2017-11-16T22:31:12.516Z,10.36
2017-11-16T22:33:41.710Z,10.36
2017-11-16T22:36:10.914Z,10.38
2017-11-16T22:38:40.125Z,10.36
2017-11-16T22:41:09.331Z,10.38
2017-11-16T22:43:39.405Z,10.36
2017-11-16T22:46:08.689Z,10.31
2017-11-16T22:48:37.880Z,10.35
2017-11-16T22:51:07.061Z,10.35
2017-11-16T22:53:36.301Z,10.34
2017-11-16T22:56:05.542Z,10.30
2017-11-16T22:58:35.611Z,10.34
2017-11-16T23:01:06.244Z,10.36
2017-11-16T23:03:35.443Z,10.39
2017-11-16T23:06:04.634Z,10.39
2017-11-16T23:08:33.853Z,10.39
2017-11-16T23:11:03.076Z,10.43
2017-11-16T23:13:32.254Z,10.48
2017-11-16T23:16:01.452Z,10.51
2017-11-16T23:18:30.646Z,10.56
2017-11-16T23:20:59.834Z,10.59
2017-11-16T23:23:29.022Z,10.58
2017-11-16T23:25:58.273Z,10.53
2017-11-16T23:28:28.235Z,10.46
2017-11-16T23:30:57.451Z,10.49
2017-11-16T23:33:28.217Z,10.51
2017-11-16T23:35:58.179Z,10.54
2017-11-16T23:38:27.455Z,10.56
2017-11-16T23:40:56.648Z,10.61
2017-11-16T23:43:25.850Z,10.61
2017-11-16T23:45:55.094Z,10.61
2017-11-16T23:48:24.295Z,10.62
2017-11-16T23:50:53.492Z,10.61
2017-11-16T23:53:22.814Z,10.61
2017-11-16T23:55:52.781Z,10.63
2017-11-16T23:58:22.004Z,10.64
